sensor_id;sensor_type;location;lat;lon;timestamp;P1;durP1;ratioP1;P2;durP2;ratioP2
19505;SDS011;9894;50.852;-0.140;2023-04-24T00:00:06;2.78;;;1.58;;
19505;SDS011;9894;50.852;-0.140;2023-04-24T00:02:38;0.32;;;0.32;;
19505;SDS011;9894;50.852;-0.140;2023-04-24T00:05:05;0.40;;;0.40;;
19505;SDS011;9894;50.852;-0.140;2023-04-24T00:07:31;0.38;;;0.38;;
19505;SDS011;9894;50.852;-0.140;2023-04-24T00:09:57;0.70;;;0.70;;
19505;SDS011;9894;50.852;-0.140;2023-04-24T00:12:24;0.35;;;0.35;;
19505;SDS011;9894;50.852;-0.140;2023-04-24T00:14:50;0.30;;;0.30;;
19505;SDS011;9894;50.852;-0.140;2023-04-24T00:17:23;1.30;;;1.20;;
19505;SDS011;9894;50.852;-0.140;2023-04-24T00:19:50;0.40;;;0.40;;
19505;SDS011;9894;50.852;-0.140;2023-04-24T00:22:16;0.30;;;0.30;;
19505;SDS011;9894;50.852;-0.140;2023-04-24T00:24:43;0.73;;;0.73;;
19505;SDS011;9894;50.852;-0.140;2023-04-24T00:27:09;0.95;;;0.95;;
19505;SDS011;9894;50.852;-0.140;2023-04-24T00:29:35;1.65;;;1.00;;
19505;SDS011;9894;50.852;-0.140;2023-04-24T00:32:01;0.30;;;0.30;;
19505;SDS011;9894;50.852;-0.140;2023-04-24T00:34:27;0.40;;;0.40;;
19505;SDS011;9894;50.852;-0.140;2023-04-24T00:36:54;0.30;;;0.30;;
19505;SDS011;9894;50.852;-0.140;2023-04-24T00:39:20;0.30;;;0.30;;
19505;SDS011;9894;50.852;-0.140;2023-04-24T00:41:46;0.75;;;0.75;;
19505;SDS011;9894;50.852;-0.140;2023-04-24T00:44:13;1.13;;;0.75;;
19505;SDS011;9894;50.852;-0.140;2023-04-24T00:46:40;1.45;;;0.73;;
19505;SDS011;9894;50.852;-0.140;2023-04-24T00:49:06;0.30;;;0.30;;
19505;SDS011;9894;50.852;-0.140;2023-04-24T00:51:32;4.28;;;1.15;;
19505;SDS011;9894;50.852;-0.140;2023-04-24T00:53:59;1.00;;;0.73;;
19505;SDS011;9894;50.852;-0.140;2023-04-24T00:56:26;0.30;;;0.30;;
19505;SDS011;9894;50.852;-0.140;2023-04-24T00:58:52;0.40;;;0.40;;
19505;SDS011;9894;50.852;-0.140;2023-04-24T01:01:22;0.40;;;0.40;;
19505;SDS011;9894;50.852;-0.140;2023-04-24T01:03:51;0.30;;;0.30;;
19505;SDS011;9894;50.852;-0.140;2023-04-24T01:06:18;0.28;;;0.28;;
19505;SDS011;9894;50.852;-0.140;2023-04-24T01:08:45;4.50;;;2.40;;
19505;SDS011;9894;50.852;-0.140;2023-04-24T01:11:12;8.20;;;1.40;;
19505;SDS011;9894;50.852;-0.140;2023-04-24T01:13:38;0.30;;;0.30;;
19505;SDS011;9894;50.852;-0.140;2023-04-24T01:16:06;3.13;;;1.38;;
19505;SDS011;9894;50.852;-0.140;2023-04-24T01:18:32;3.70;;;2.33;;
19505;SDS011;9894;50.852;-0.140;2023-04-24T01:20:59;0.30;;;0.30;;
19505;SDS011;9894;50.852;-0.140;2023-04-24T01:23:25;1.20;;;0.88;;
19505;SDS011;9894;50.852;-0.140;2023-04-24T01:25:51;0.40;;;0.40;;
19505;SDS011;9894;50.852;-0.140;2023-04-24T01:28:18;0.28;;;0.28;;
19505;SDS011;9894;50.852;-0.140;2023-04-24T01:30:44;1.08;;;0.65;;
19505;SDS011;9894;50.852;-0.140;2023-04-24T01:33:11;0.40;;;0.40;;
19505;SDS011;9894;50.852;-0.140;2023-04-24T01:35:37;0.40;;;0.40;;
19505;SDS011;9894;50.852;-0.140;2023-04-24T01:38:03;1.90;;;1.38;;
19505;SDS011;9894;50.852;-0.140;2023-04-24T01:40:30;2.00;;;1.10;;
19505;SDS011;9894;50.852;-0.140;2023-04-24T01:42:57;0.50;;;0.50;;
19505;SDS011;9894;50.852;-0.140;2023-04-24T01:45:23;5.05;;;2.72;;
19505;SDS011;9894;50.852;-0.140;2023-04-24T01:47:50;0.40;;;0.40;;
19505;SDS011;9894;50.852;-0.140;2023-04-24T01:50:17;0.40;;;0.40;;
19505;SDS011;9894;50.852;-0.140;2023-04-24T01:52:43;0.20;;;0.20;;
19505;SDS011;9894;50.852;-0.140;2023-04-24T01:55:09;0.55;;;0.55;;
19505;SDS011;9894;50.852;-0.140;2023-04-24T01:57:36;0.30;;;0.30;;
19505;SDS011;9894;50.852;-0.140;2023-04-24T02:00:02;0.80;;;0.50;;
19505;SDS011;9894;50.852;-0.140;2023-04-24T02:02:32;0.30;;;0.30;;
19505;SDS011;9894;50.852;-0.140;2023-04-24T02:04:58;0.50;;;0.50;;
19505;SDS011;9894;50.852;-0.140;2023-04-24T02:07:25;0.47;;;0.47;;
19505;SDS011;9894;50.852;-0.140;2023-04-24T02:09:51;0.40;;;0.40;;
19505;SDS011;9894;50.852;-0.140;2023-04-24T02:12:17;0.30;;;0.30;;
19505;SDS011;9894;50.852;-0.140;2023-04-24T02:14:43;0.55;;;0.55;;
19505;SDS011;9894;50.852;-0.140;2023-04-24T02:17:10;0.30;;;0.30;;
19505;SDS011;9894;50.852;-0.140;2023-04-24T02:19:37;0.20;;;0.20;;
19505;SDS011;9894;50.852;-0.140;2023-04-24T02:22:04;0.30;;;0.30;;
19505;SDS011;9894;50.852;-0.140;2023-04-24T02:24:30;0.30;;;0.30;;
19505;SDS011;9894;50.852;-0.140;2023-04-24T02:26:56;0.30;;;0.30;;
19505;SDS011;9894;50.852;-0.140;2023-04-24T02:29:23;0.30;;;0.30;;
19505;SDS011;9894;50.852;-0.140;2023-04-24T02:31:49;0.40;;;0.40;;
19505;SDS011;9894;50.852;-0.140;2023-04-24T02:34:15;0.30;;;0.30;;
19505;SDS011;9894;50.852;-0.140;2023-04-24T02:36:41;0.30;;;0.30;;
19505;SDS011;9894;50.852;-0.140;2023-04-24T02:39:07;0.30;;;0.30;;
19505;SDS011;9894;50.852;-0.140;2023-04-24T02:41:34;0.30;;;0.30;;
19505;SDS011;9894;50.852;-0.140;2023-04-24T02:44:00;0.95;;;0.90;;
19505;SDS011;9894;50.852;-0.140;2023-04-24T02:46:26;0.35;;;0.35;;
19505;SDS011;9894;50.852;-0.140;2023-04-24T02:48:52;0.30;;;0.30;;
19505;SDS011;9894;50.852;-0.140;2023-04-24T02:51:18;0.30;;;0.30;;
19505;SDS011;9894;50.852;-0.140;2023-04-24T02:53:44;0.30;;;0.30;;
19505;SDS011;9894;50.852;-0.140;2023-04-24T02:56:11;0.32;;;0.32;;
19505;SDS011;9894;50.852;-0.140;2023-04-24T02:58:39;0.50;;;0.50;;
19505;SDS011;9894;50.852;-0.140;2023-04-24T03:01:07;0.30;;;0.30;;
19505;SDS011;9894;50.852;-0.140;2023-04-24T03:03:35;1.65;;;0.55;;
19505;SDS011;9894;50.852;-0.140;2023-04-24T03:06:02;0.30;;;0.30;;
19505;SDS011;9894;50.852;-0.140;2023-04-24T03:08:31;0.30;;;0.30;;
19505;SDS011;9894;50.852;-0.140;2023-04-24T03:10:57;0.52;;;0.52;;
19505;SDS011;9894;50.852;-0.140;2023-04-24T03:13:23;0.40;;;0.40;;
19505;SDS011;9894;50.852;-0.140;2023-04-24T03:15:49;0.20;;;0.20;;
19505;SDS011;9894;50.852;-0.140;2023-04-24T03:18:15;0.30;;;0.30;;
19505;SDS011;9894;50.852;-0.140;2023-04-24T03:20:41;0.20;;;0.20;;
19505;SDS011;9894;50.852;-0.140;2023-04-24T03:23:07;0.30;;;0.30;;
19505;SDS011;9894;50.852;-0.140;2023-04-24T03:25:33;0.30;;;0.30;;
19505;SDS011;9894;50.852;-0.140;2023-04-24T03:27:59;0.30;;;0.30;;
19505;SDS011;9894;50.852;-0.140;2023-04-24T03:30:25;0.20;;;0.20;;
19505;SDS011;9894;50.852;-0.140;2023-04-24T03:32:52;0.20;;;0.20;;
19505;SDS011;9894;50.852;-0.140;2023-04-24T03:35:18;0.20;;;0.20;;
19505;SDS011;9894;50.852;-0.140;2023-04-24T03:37:44;0.30;;;0.30;;
19505;SDS011;9894;50.852;-0.140;2023-04-24T03:40:10;0.32;;;0.32;;
19505;SDS011;9894;50.852;-0.140;2023-04-24T03:42:36;0.65;;;0.65;;
19505;SDS011;9894;50.852;-0.140;2023-04-24T03:45:03;0.30;;;0.30;;
19505;SDS011;9894;50.852;-0.140;2023-04-24T03:47:29;0.30;;;0.30;;
19505;SDS011;9894;50.852;-0.140;2023-04-24T03:49:55;1.25;;;1.15;;
19505;SDS011;9894;50.852;-0.140;2023-04-24T03:52:21;0.20;;;0.20;;
19505;SDS011;9894;50.852;-0.140;2023-04-24T03:54:47;5.18;;;2.75;;
19505;SDS011;9894;50.852;-0.140;2023-04-24T03:57:13;3.40;;;1.40;;
19505;SDS011;9894;50.852;-0.140;2023-04-24T03:59:39;9.55;;;2.80;;
19505;SDS011;9894;50.852;-0.140;2023-04-24T04:02:05;2.50;;;2.10;;
19505;SDS011;9894;50.852;-0.140;2023-04-24T04:04:32;0.73;;;0.73;;
19505;SDS011;9894;50.852;-0.140;2023-04-24T04:06:58;3.50;;;1.17;;
19505;SDS011;9894;50.852;-0.140;2023-04-24T04:09:26;1.05;;;0.95;;
19505;SDS011;9894;50.852;-0.140;2023-04-24T04:11:52;0.20;;;0.20;;
19505;SDS011;9894;50.852;-0.140;2023-04-24T04:14:19;2.80;;;1.83;;
19505;SDS011;9894;50.852;-0.140;2023-04-24T04:16:45;0.30;;;0.30;;
19505;SDS011;9894;50.852;-0.140;2023-04-24T04:19:11;1.00;;;0.60;;
19505;SDS011;9894;50.852;-0.140;2023-04-24T04:21:37;0.85;;;0.68;;
19505;SDS011;9894;50.852;-0.140;2023-04-24T04:24:03;4.50;;;2.38;;
19505;SDS011;9894;50.852;-0.140;2023-04-24T04:26:30;2.80;;;1.38;;
19505;SDS011;9894;50.852;-0.140;2023-04-24T04:28:58;0.20;;;0.20;;
19505;SDS011;9894;50.852;-0.140;2023-04-24T04:31:25;1.73;;;1.20;;
19505;SDS011;9894;50.852;-0.140;2023-04-24T04:33:52;0.20;;;0.20;;
19505;SDS011;9894;50.852;-0.140;2023-04-24T04:36:18;1.20;;;0.65;;
19505;SDS011;9894;50.852;-0.140;2023-04-24T04:38:44;1.77;;;0.95;;
19505;SDS011;9894;50.852;-0.140;2023-04-24T04:41:10;3.05;;;1.75;;
19505;SDS011;9894;50.852;-0.140;2023-04-24T04:43:36;1.35;;;0.60;;
19505;SDS011;9894;50.852;-0.140;2023-04-24T04:46:04;0.43;;;0.43;;
19505;SDS011;9894;50.852;-0.140;2023-04-24T04:48:31;0.95;;;0.77;;
19505;SDS011;9894;50.852;-0.140;2023-04-24T04:50:57;0.20;;;0.20;;
19505;SDS011;9894;50.852;-0.140;2023-04-24T04:53:24;0.20;;;0.20;;
19505;SDS011;9894;50.852;-0.140;2023-04-24T04:55:51;0.88;;;0.82;;
19505;SDS011;9894;50.852;-0.140;2023-04-24T04:58:17;1.27;;;1.17;;
19505;SDS011;9894;50.852;-0.140;2023-04-24T05:00:43;0.20;;;0.20;;
19505;SDS011;9894;50.852;-0.140;2023-04-24T05:03:09;0.20;;;0.20;;
19505;SDS011;9894;50.852;-0.140;2023-04-24T05:05:35;0.45;;;0.40;;
19505;SDS011;9894;50.852;-0.140;2023-04-24T05:08:05;0.20;;;0.20;;
19505;SDS011;9894;50.852;-0.140;2023-04-24T05:10:32;0.40;;;0.40;;
19505;SDS011;9894;50.852;-0.140;2023-04-24T05:12:58;0.20;;;0.20;;
19505;SDS011;9894;50.852;-0.140;2023-04-24T05:15:24;0.30;;;0.30;;
19505;SDS011;9894;50.852;-0.140;2023-04-24T05:17:50;0.20;;;0.20;;
19505;SDS011;9894;50.852;-0.140;2023-04-24T05:20:16;0.20;;;0.20;;
19505;SDS011;9894;50.852;-0.140;2023-04-24T05:22:43;0.10;;;0.10;;
19505;SDS011;9894;50.852;-0.140;2023-04-24T05:25:09;0.17;;;0.17;;
19505;SDS011;9894;50.852;-0.140;2023-04-24T05:27:35;0.20;;;0.20;;
19505;SDS011;9894;50.852;-0.140;2023-04-24T05:30:01;0.20;;;0.20;;
19505;SDS011;9894;50.852;-0.140;2023-04-24T05:32:27;0.20;;;0.20;;
19505;SDS011;9894;50.852;-0.140;2023-04-24T05:34:53;0.20;;;0.20;;
19505;SDS011;9894;50.852;-0.140;2023-04-24T05:37:20;0.30;;;0.30;;
19505;SDS011;9894;50.852;-0.140;2023-04-24T05:39:46;0.20;;;0.20;;
19505;SDS011;9894;50.852;-0.140;2023-04-24T05:42:12;0.15;;;0.15;;
19505;SDS011;9894;50.852;-0.140;2023-04-24T05:44:38;0.20;;;0.20;;
19505;SDS011;9894;50.852;-0.140;2023-04-24T05:47:04;0.20;;;0.20;;
19505;SDS011;9894;50.852;-0.140;2023-04-24T05:49:31;0.13;;;0.13;;
19505;SDS011;9894;50.852;-0.140;2023-04-24T05:51:57;0.20;;;0.20;;
19505;SDS011;9894;50.852;-0.140;2023-04-24T05:54:23;0.20;;;0.20;;
19505;SDS011;9894;50.852;-0.140;2023-04-24T05:56:49;0.20;;;0.20;;
19505;SDS011;9894;50.852;-0.140;2023-04-24T05:59:19;0.20;;;0.20;;
19505;SDS011;9894;50.852;-0.140;2023-04-24T06:01:45;0.20;;;0.20;;
19505;SDS011;9894;50.852;-0.140;2023-04-24T06:04:11;0.13;;;0.13;;
19505;SDS011;9894;50.852;-0.140;2023-04-24T06:06:39;0.20;;;0.20;;
19505;SDS011;9894;50.852;-0.140;2023-04-24T06:09:05;0.20;;;0.20;;
19505;SDS011;9894;50.852;-0.140;2023-04-24T06:11:31;0.20;;;0.20;;
19505;SDS011;9894;50.852;-0.140;2023-04-24T06:13:57;0.20;;;0.20;;
19505;SDS011;9894;50.852;-0.140;2023-04-24T06:16:24;0.20;;;0.20;;
19505;SDS011;9894;50.852;-0.140;2023-04-24T06:18:50;0.20;;;0.20;;
19505;SDS011;9894;50.852;-0.140;2023-04-24T06:21:16;0.30;;;0.30;;
19505;SDS011;9894;50.852;-0.140;2023-04-24T06:23:42;1.35;;;0.77;;
19505;SDS011;9894;50.852;-0.140;2023-04-24T06:26:09;0.88;;;0.28;;
19505;SDS011;9894;50.852;-0.140;2023-04-24T06:28:35;0.20;;;0.20;;
19505;SDS011;9894;50.852;-0.140;2023-04-24T06:31:01;0.20;;;0.20;;
19505;SDS011;9894;50.852;-0.140;2023-04-24T06:33:27;0.20;;;0.20;;
19505;SDS011;9894;50.852;-0.140;2023-04-24T06:35:53;0.68;;;0.35;;
19505;SDS011;9894;50.852;-0.140;2023-04-24T06:38:20;0.20;;;0.20;;
19505;SDS011;9894;50.852;-0.140;2023-04-24T06:40:49;0.20;;;0.20;;
19505;SDS011;9894;50.852;-0.140;2023-04-24T06:43:15;0.60;;;0.52;;
19505;SDS011;9894;50.852;-0.140;2023-04-24T06:45:41;0.32;;;0.32;;
19505;SDS011;9894;50.852;-0.140;2023-04-24T06:48:08;0.20;;;0.20;;
19505;SDS011;9894;50.852;-0.140;2023-04-24T06:50:35;14.70;;;4.13;;
19505;SDS011;9894;50.852;-0.140;2023-04-24T06:53:01;0.93;;;0.85;;
19505;SDS011;9894;50.852;-0.140;2023-04-24T06:55:27;0.30;;;0.30;;
19505;SDS011;9894;50.852;-0.140;2023-04-24T06:57:53;0.20;;;0.20;;
19505;SDS011;9894;50.852;-0.140;2023-04-24T07:00:20;0.20;;;0.20;;
19505;SDS011;9894;50.852;-0.140;2023-04-24T07:02:52;0.30;;;0.30;;
19505;SDS011;9894;50.852;-0.140;2023-04-24T07:05:18;1.17;;;1.05;;
19505;SDS011;9894;50.852;-0.140;2023-04-24T07:07:48;0.35;;;0.35;;
19505;SDS011;9894;50.852;-0.140;2023-04-24T07:10:15;1.65;;;0.73;;
19505;SDS011;9894;50.852;-0.140;2023-04-24T07:12:41;0.20;;;0.20;;
19505;SDS011;9894;50.852;-0.140;2023-04-24T07:15:08;0.55;;;0.55;;
19505;SDS011;9894;50.852;-0.140;2023-04-24T07:17:34;0.25;;;0.25;;
19505;SDS011;9894;50.852;-0.140;2023-04-24T07:20:00;0.20;;;0.20;;
19505;SDS011;9894;50.852;-0.140;2023-04-24T07:22:26;0.30;;;0.30;;
19505;SDS011;9894;50.852;-0.140;2023-04-24T07:24:53;0.28;;;0.28;;
19505;SDS011;9894;50.852;-0.140;2023-04-24T07:27:19;1.35;;;0.82;;
19505;SDS011;9894;50.852;-0.140;2023-04-24T07:29:45;0.30;;;0.30;;
19505;SDS011;9894;50.852;-0.140;2023-04-24T07:32:11;0.60;;;0.60;;
19505;SDS011;9894;50.852;-0.140;2023-04-24T07:34:37;0.20;;;0.20;;
19505;SDS011;9894;50.852;-0.140;2023-04-24T07:37:03;0.28;;;0.28;;
19505;SDS011;9894;50.852;-0.140;2023-04-24T07:39:30;0.20;;;0.20;;
19505;SDS011;9894;50.852;-0.140;2023-04-24T07:41:56;0.82;;;0.82;;
19505;SDS011;9894;50.852;-0.140;2023-04-24T07:44:24;0.20;;;0.20;;
19505;SDS011;9894;50.852;-0.140;2023-04-24T07:46:50;1.65;;;1.08;;
19505;SDS011;9894;50.852;-0.140;2023-04-24T07:49:16;0.20;;;0.20;;
19505;SDS011;9894;50.852;-0.140;2023-04-24T07:51:42;0.43;;;0.43;;
19505;SDS011;9894;50.852;-0.140;2023-04-24T07:54:08;0.45;;;0.45;;
19505;SDS011;9894;50.852;-0.140;2023-04-24T07:56:35;0.20;;;0.20;;
19505;SDS011;9894;50.852;-0.140;2023-04-24T07:59:04;0.40;;;0.40;;
19505;SDS011;9894;50.852;-0.140;2023-04-24T08:01:30;0.80;;;0.80;;
19505;SDS011;9894;50.852;-0.140;2023-04-24T08:03:59;0.20;;;0.20;;
19505;SDS011;9894;50.852;-0.140;2023-04-24T08:06:25;0.30;;;0.30;;
19505;SDS011;9894;50.852;-0.140;2023-04-24T08:08:55;0.30;;;0.30;;
19505;SDS011;9894;50.852;-0.140;2023-04-24T08:11:21;0.20;;;0.20;;
19505;SDS011;9894;50.852;-0.140;2023-04-24T08:13:48;0.60;;;0.60;;
19505;SDS011;9894;50.852;-0.140;2023-04-24T08:16:14;0.20;;;0.20;;
19505;SDS011;9894;50.852;-0.140;2023-04-24T08:18:40;0.40;;;0.40;;
19505;SDS011;9894;50.852;-0.140;2023-04-24T08:21:06;0.30;;;0.30;;
19505;SDS011;9894;50.852;-0.140;2023-04-24T08:23:32;0.22;;;0.22;;
19505;SDS011;9894;50.852;-0.140;2023-04-24T08:25:58;0.90;;;0.90;;
19505;SDS011;9894;50.852;-0.140;2023-04-24T08:28:25;1.75;;;1.65;;
19505;SDS011;9894;50.852;-0.140;2023-04-24T08:30:51;1.35;;;0.68;;
19505;SDS011;9894;50.852;-0.140;2023-04-24T08:33:22;0.57;;;0.57;;
19505;SDS011;9894;50.852;-0.140;2023-04-24T08:35:49;0.40;;;0.40;;
19505;SDS011;9894;50.852;-0.140;2023-04-24T08:38:15;0.20;;;0.20;;
19505;SDS011;9894;50.852;-0.140;2023-04-24T08:40:42;0.20;;;0.20;;
19505;SDS011;9894;50.852;-0.140;2023-04-24T08:43:10;0.50;;;0.50;;
19505;SDS011;9894;50.852;-0.140;2023-04-24T08:45:38;0.20;;;0.20;;
19505;SDS011;9894;50.852;-0.140;2023-04-24T08:48:05;1.45;;;0.40;;
19505;SDS011;9894;50.852;-0.140;2023-04-24T08:50:31;0.50;;;0.50;;
19505;SDS011;9894;50.852;-0.140;2023-04-24T08:52:58;0.82;;;0.82;;
19505;SDS011;9894;50.852;-0.140;2023-04-24T08:55:24;0.30;;;0.30;;
19505;SDS011;9894;50.852;-0.140;2023-04-24T08:57:51;1.60;;;1.40;;
19505;SDS011;9894;50.852;-0.140;2023-04-24T09:00:18;1.65;;;1.25;;
19505;SDS011;9894;50.852;-0.140;2023-04-24T09:02:45;0.30;;;0.30;;
19505;SDS011;9894;50.852;-0.140;2023-04-24T09:05:13;0.60;;;0.60;;
19505;SDS011;9894;50.852;-0.140;2023-04-24T09:07:40;1.65;;;1.45;;
19505;SDS011;9894;50.852;-0.140;2023-04-24T09:10:07;2.85;;;1.77;;
19505;SDS011;9894;50.852;-0.140;2023-04-24T09:12:34;1.23;;;1.15;;
19505;SDS011;9894;50.852;-0.140;2023-04-24T09:15:00;0.70;;;0.70;;
19505;SDS011;9894;50.852;-0.140;2023-04-24T09:17:26;6.22;;;2.92;;
19505;SDS011;9894;50.852;-0.140;2023-04-24T09:19:53;1.95;;;1.85;;
19505;SDS011;9894;50.852;-0.140;2023-04-24T09:22:19;0.82;;;0.82;;
19505;SDS011;9894;50.852;-0.140;2023-04-24T09:24:49;2.00;;;1.73;;
19505;SDS011;9894;50.852;-0.140;2023-04-24T09:27:25;0.95;;;0.95;;
19505;SDS011;9894;50.852;-0.140;2023-04-24T09:29:54;1.52;;;1.42;;
19505;SDS011;9894;50.852;-0.140;2023-04-24T09:32:21;1.75;;;1.38;;
19505;SDS011;9894;50.852;-0.140;2023-04-24T09:35:04;4.75;;;1.48;;
19505;SDS011;9894;50.852;-0.140;2023-04-24T09:37:37;0.65;;;0.65;;
19505;SDS011;9894;50.852;-0.140;2023-04-24T09:42:37;0.77;;;0.77;;
19505;SDS011;9894;50.852;-0.140;2023-04-24T09:45:04;4.80;;;2.22;;
19505;SDS011;9894;50.852;-0.140;2023-04-24T09:47:40;0.50;;;0.50;;
19505;SDS011;9894;50.852;-0.140;2023-04-24T09:50:13;2.05;;;1.95;;
19505;SDS011;9894;50.852;-0.140;2023-04-24T09:52:40;2.85;;;2.15;;
19505;SDS011;9894;50.852;-0.140;2023-04-24T09:55:25;1.35;;;1.25;;
19505;SDS011;9894;50.852;-0.140;2023-04-24T09:57:53;9.55;;;2.80;;
19505;SDS011;9894;50.852;-0.140;2023-04-24T10:00:23;2.08;;;1.67;;
19505;SDS011;9894;50.852;-0.140;2023-04-24T10:02:50;1.60;;;1.50;;
19505;SDS011;9894;50.852;-0.140;2023-04-24T10:05:23;0.93;;;0.93;;
19505;SDS011;9894;50.852;-0.140;2023-04-24T10:07:50;1.90;;;1.80;;
19505;SDS011;9894;50.852;-0.140;2023-04-24T10:10:16;1.13;;;1.13;;
19505;SDS011;9894;50.852;-0.140;2023-04-24T10:12:43;1.00;;;1.00;;
19505;SDS011;9894;50.852;-0.140;2023-04-24T10:15:10;3.25;;;2.05;;
19505;SDS011;9894;50.852;-0.140;2023-04-24T10:17:37;4.65;;;1.50;;
19505;SDS011;9894;50.852;-0.140;2023-04-24T10:20:05;1.50;;;1.17;;
19505;SDS011;9894;50.852;-0.140;2023-04-24T10:22:32;2.45;;;1.48;;
19505;SDS011;9894;50.852;-0.140;2023-04-24T10:24:58;1.63;;;1.20;;
19505;SDS011;9894;50.852;-0.140;2023-04-24T10:27:25;1.52;;;1.42;;
19505;SDS011;9894;50.852;-0.140;2023-04-24T10:29:52;2.03;;;1.70;;
19505;SDS011;9894;50.852;-0.140;2023-04-24T10:32:19;1.50;;;1.30;;
19505;SDS011;9894;50.852;-0.140;2023-04-24T10:34:45;1.63;;;1.45;;
19505;SDS011;9894;50.852;-0.140;2023-04-24T10:37:12;0.73;;;0.73;;
19505;SDS011;9894;50.852;-0.140;2023-04-24T10:39:38;1.02;;;0.98;;
19505;SDS011;9894;50.852;-0.140;2023-04-24T10:42:15;1.10;;;1.00;;
19505;SDS011;9894;50.852;-0.140;2023-04-24T10:44:41;1.10;;;1.00;;
19505;SDS011;9894;50.852;-0.140;2023-04-24T10:47:12;4.15;;;1.63;;
19505;SDS011;9894;50.852;-0.140;2023-04-24T10:49:39;1.05;;;1.02;;
19505;SDS011;9894;50.852;-0.140;2023-04-24T10:52:05;3.67;;;2.20;;
19505;SDS011;9894;50.852;-0.140;2023-04-24T10:54:44;0.80;;;0.80;;
19505;SDS011;9894;50.852;-0.140;2023-04-24T10:59:51;0.68;;;0.68;;
19505;SDS011;9894;50.852;-0.140;2023-04-24T11:02:17;1.20;;;1.20;;
19505;SDS011;9894;50.852;-0.140;2023-04-24T11:04:44;3.33;;;1.55;;
19505;SDS011;9894;50.852;-0.140;2023-04-24T11:07:11;1.77;;;1.67;;
19505;SDS011;9894;50.852;-0.140;2023-04-24T11:09:37;4.65;;;1.52;;
19505;SDS011;9894;50.852;-0.140;2023-04-24T11:12:09;1.88;;;1.75;;
19505;SDS011;9894;50.852;-0.140;2023-04-24T11:17:34;1.50;;;1.33;;
19505;SDS011;9894;50.852;-0.140;2023-04-24T11:22:32;0.50;;;0.50;;
19505;SDS011;9894;50.852;-0.140;2023-04-24T11:25:00;2.35;;;1.75;;
19505;SDS011;9894;50.852;-0.140;2023-04-24T11:27:30;0.50;;;0.50;;
19505;SDS011;9894;50.852;-0.140;2023-04-24T11:30:01;0.60;;;0.60;;
19505;SDS011;9894;50.852;-0.140;2023-04-24T11:37:37;1.27;;;1.17;;
19505;SDS011;9894;50.852;-0.140;2023-04-24T11:40:04;1.60;;;1.50;;
19505;SDS011;9894;50.852;-0.140;2023-04-24T11:42:37;2.03;;;1.85;;
19505;SDS011;9894;50.852;-0.140;2023-04-24T11:45:07;1.20;;;1.20;;
19505;SDS011;9894;50.852;-0.140;2023-04-24T11:47:33;1.00;;;1.00;;
19505;SDS011;9894;50.852;-0.140;2023-04-24T11:50:00;2.00;;;1.83;;
19505;SDS011;9894;50.852;-0.140;2023-04-24T11:52:26;4.32;;;3.97;;
19505;SDS011;9894;50.852;-0.140;2023-04-24T11:54:53;2.60;;;2.50;;
19505;SDS011;9894;50.852;-0.140;2023-04-24T11:57:19;1.60;;;1.60;;
19505;SDS011;9894;50.852;-0.140;2023-04-24T11:59:46;2.28;;;2.08;;
19505;SDS011;9894;50.852;-0.140;2023-04-24T12:02:22;1.92;;;1.83;;
19505;SDS011;9894;50.852;-0.140;2023-04-24T12:04:48;1.50;;;1.50;;
19505;SDS011;9894;50.852;-0.140;2023-04-24T12:07:15;1.00;;;1.00;;
19505;SDS011;9894;50.852;-0.140;2023-04-24T12:09:42;40.00;;;2.85;;
19505;SDS011;9894;50.852;-0.140;2023-04-24T12:12:08;3.55;;;1.65;;
19505;SDS011;9894;50.852;-0.140;2023-04-24T12:14:52;0.75;;;0.75;;
19505;SDS011;9894;50.852;-0.140;2023-04-24T12:17:24;1.42;;;1.15;;
19505;SDS011;9894;50.852;-0.140;2023-04-24T12:19:50;2.60;;;1.48;;
19505;SDS011;9894;50.852;-0.140;2023-04-24T12:22:16;1.25;;;0.93;;
19505;SDS011;9894;50.852;-0.140;2023-04-24T12:24:59;0.30;;;0.30;;
19505;SDS011;9894;50.852;-0.140;2023-04-24T12:27:26;0.75;;;0.52;;
19505;SDS011;9894;50.852;-0.140;2023-04-24T12:29:56;0.35;;;0.35;;
19505;SDS011;9894;50.852;-0.140;2023-04-24T12:32:22;1.33;;;1.23;;
19505;SDS011;9894;50.852;-0.140;2023-04-24T12:34:50;0.20;;;0.20;;
19505;SDS011;9894;50.852;-0.140;2023-04-24T12:37:24;0.38;;;0.38;;
19505;SDS011;9894;50.852;-0.140;2023-04-24T12:40:07;0.77;;;0.60;;
19505;SDS011;9894;50.852;-0.140;2023-04-24T12:42:33;0.70;;;0.60;;
19505;SDS011;9894;50.852;-0.140;2023-04-24T12:45:04;0.98;;;0.80;;
19505;SDS011;9894;50.852;-0.140;2023-04-24T12:47:30;4.38;;;2.22;;
19505;SDS011;9894;50.852;-0.140;2023-04-24T12:49:57;4.30;;;2.08;;
19505;SDS011;9894;50.852;-0.140;2023-04-24T12:52:23;1.80;;;1.70;;
19505;SDS011;9894;50.852;-0.140;2023-04-24T12:54:49;4.32;;;2.22;;
19505;SDS011;9894;50.852;-0.140;2023-04-24T12:57:16;2.13;;;1.98;;
19505;SDS011;9894;50.852;-0.140;2023-04-24T12:59:42;2.33;;;2.13;;
19505;SDS011;9894;50.852;-0.140;2023-04-24T13:02:09;5.35;;;3.25;;
19505;SDS011;9894;50.852;-0.140;2023-04-24T13:04:35;2.55;;;2.45;;
19505;SDS011;9894;50.852;-0.140;2023-04-24T13:07:01;3.05;;;2.75;;
19505;SDS011;9894;50.852;-0.140;2023-04-24T13:09:27;2.60;;;2.50;;
19505;SDS011;9894;50.852;-0.140;2023-04-24T13:11:54;3.35;;;3.15;;
19505;SDS011;9894;50.852;-0.140;2023-04-24T13:14:21;3.95;;;3.75;;
19505;SDS011;9894;50.852;-0.140;2023-04-24T13:16:47;4.40;;;4.20;;
19505;SDS011;9894;50.852;-0.140;2023-04-24T13:19:13;4.30;;;4.10;;
19505;SDS011;9894;50.852;-0.140;2023-04-24T13:21:40;5.53;;;4.70;;
19505;SDS011;9894;50.852;-0.140;2023-04-24T13:24:09;5.25;;;4.85;;
19505;SDS011;9894;50.852;-0.140;2023-04-24T13:26:35;16.73;;;4.90;;
19505;SDS011;9894;50.852;-0.140;2023-04-24T13:29:01;4.70;;;4.40;;
19505;SDS011;9894;50.852;-0.140;2023-04-24T13:31:28;4.90;;;4.60;;
19505;SDS011;9894;50.852;-0.140;2023-04-24T13:33:54;5.40;;;5.00;;
19505;SDS011;9894;50.852;-0.140;2023-04-24T13:36:20;5.40;;;5.10;;
19505;SDS011;9894;50.852;-0.140;2023-04-24T13:38:47;9.15;;;6.13;;
19505;SDS011;9894;50.852;-0.140;2023-04-24T13:41:13;6.38;;;5.97;;
19505;SDS011;9894;50.852;-0.140;2023-04-24T13:43:39;7.22;;;5.97;;
19505;SDS011;9894;50.852;-0.140;2023-04-24T13:46:07;6.75;;;6.28;;
19505;SDS011;9894;50.852;-0.140;2023-04-24T13:48:33;5.93;;;5.53;;
19505;SDS011;9894;50.852;-0.140;2023-04-24T13:51:01;5.07;;;4.78;;
19505;SDS011;9894;50.852;-0.140;2023-04-24T13:53:27;7.20;;;6.50;;
19505;SDS011;9894;50.852;-0.140;2023-04-24T13:55:53;9.20;;;7.28;;
19505;SDS011;9894;50.852;-0.140;2023-04-24T13:58:19;11.10;;;9.95;;
19505;SDS011;9894;50.852;-0.140;2023-04-24T14:00:45;11.10;;;10.30;;
19505;SDS011;9894;50.852;-0.140;2023-04-24T14:03:12;12.80;;;11.90;;
19505;SDS011;9894;50.852;-0.140;2023-04-24T14:05:38;11.60;;;10.80;;
19505;SDS011;9894;50.852;-0.140;2023-04-24T14:08:04;13.40;;;12.23;;
19505;SDS011;9894;50.852;-0.140;2023-04-24T14:10:31;12.95;;;12.05;;
19505;SDS011;9894;50.852;-0.140;2023-04-24T14:12:57;12.48;;;11.57;;
19505;SDS011;9894;50.852;-0.140;2023-04-24T14:15:23;9.93;;;9.20;;
19505;SDS011;9894;50.852;-0.140;2023-04-24T14:17:49;9.02;;;8.43;;
19505;SDS011;9894;50.852;-0.140;2023-04-24T14:20:15;12.93;;;9.30;;
19505;SDS011;9894;50.852;-0.140;2023-04-24T14:22:41;10.30;;;9.60;;
19505;SDS011;9894;50.852;-0.140;2023-04-24T14:25:08;11.05;;;10.23;;
19505;SDS011;9894;50.852;-0.140;2023-04-24T14:27:34;12.20;;;11.30;;
19505;SDS011;9894;50.852;-0.140;2023-04-24T14:30:01;12.38;;;11.27;;
19505;SDS011;9894;50.852;-0.140;2023-04-24T14:32:35;14.80;;;13.60;;
19505;SDS011;9894;50.852;-0.140;2023-04-24T14:35:01;14.60;;;13.60;;
19505;SDS011;9894;50.852;-0.140;2023-04-24T14:37:27;13.63;;;12.70;;
19505;SDS011;9894;50.852;-0.140;2023-04-24T14:39:53;13.13;;;12.00;;
19505;SDS011;9894;50.852;-0.140;2023-04-24T14:42:19;11.52;;;10.73;;
19505;SDS011;9894;50.852;-0.140;2023-04-24T14:44:45;12.20;;;11.27;;
19505;SDS011;9894;50.852;-0.140;2023-04-24T14:47:12;12.00;;;11.20;;
19505;SDS011;9894;50.852;-0.140;2023-04-24T14:49:38;10.65;;;9.95;;
19505;SDS011;9894;50.852;-0.140;2023-04-24T14:52:04;10.68;;;9.77;;
19505;SDS011;9894;50.852;-0.140;2023-04-24T14:54:30;11.43;;;10.63;;
19505;SDS011;9894;50.852;-0.140;2023-04-24T14:56:56;10.27;;;9.57;;
19505;SDS011;9894;50.852;-0.140;2023-04-24T14:59:22;11.15;;;10.30;;